Time;durP1;ratioP1;P1;durP2;ratioP2;P2;SDS_P1;SDS_P2;PMS_P1;PMS_P2;Temp;Humidity;BMP_temperature;BMP_pressure;BME280_temperature;BME280_humidity;BME280_pressure;Samples;Min_cycle;Max_cycle;Signal;HPM_P1;HPM_P2
2023/11/27 00:01:46;;;;;;;15.18;7.90;;;5.20;99.90;;;;;;4953103;28;88944;-76
2023/11/27 00:04:29;;;;;;;19.00;8.30;;;5.20;99.90;;;;;;4947294;28;87162;-76
2023/11/27 00:06:55;;;;;;;20.85;7.97;;;5.20;99.90;;;;;;4943664;28;92384;-76
2023/11/27 00:09:21;;;;;;;16.02;7.10;;;5.20;99.90;;;;;;4927786;28;91662;-76
2023/11/27 00:11:47;;;;;;;15.18;7.30;;;5.10;99.90;;;;;;4960479;28;90726;-76
2023/11/27 00:14:13;;;;;;;14.75;6.43;;;5.10;99.90;;;;;;4927572;28;87963;-76
2023/11/27 00:16:38;;;;;;;17.45;7.35;;;5.10;99.90;;;;;;4945126;28;87775;-76
2023/11/27 00:19:04;;;;;;;14.13;6.53;;;5.10;99.90;;;;;;4931340;28;91521;-76
2023/11/27 00:21:30;;;;;;;16.67;8.45;;;5.10;99.90;;;;;;4944408;28;87926;-76
2023/11/27 00:23:55;;;;;;;20.85;7.32;;;5.10;99.90;;;;;;4942673;28;89210;-76
2023/11/27 00:26:21;;;;;;;14.00;7.28;;;5.10;99.90;;;;;;4924484;28;89608;-76
2023/11/27 00:28:47;;;;;;;17.67;6.70;;;5.10;99.90;;;;;;4924779;28;91889;-76
2023/11/27 00:31:12;;;;;;;16.30;8.40;;;5.10;99.90;;;;;;4926691;28;90067;-76
2023/11/27 00:33:38;;;;;;;16.50;6.95;;;5.10;99.90;;;;;;4925136;28;88308;-76
2023/11/27 00:36:05;;;;;;;18.80;6.13;;;5.10;99.90;;;;;;4943131;28;87399;-76
2023/11/27 00:38:32;;;;;;;18.42;6.32;;;5.10;99.90;;;;;;4925476;28;90351;-76
2023/11/27 00:41:00;;;;;;;16.10;6.18;;;5.00;99.90;;;;;;4927855;28;89914;-76
2023/11/27 00:43:46;;;;;;;15.50;6.93;;;5.00;99.90;;;;;;4944266;28;87522;-76
2023/11/27 00:46:15;;;;;;;15.35;6.65;;;5.00;99.90;;;;;;4959919;28;90746;-76
2023/11/27 00:48:41;;;;;;;18.17;6.97;;;5.00;99.90;;;;;;4925746;28;92333;-76
2023/11/27 00:51:07;;;;;;;14.35;6.70;;;5.00;99.90;;;;;;4925160;28;90454;-76
2023/11/27 00:53:33;;;;;;;15.55;6.43;;;5.00;99.90;;;;;;4944224;28;88902;-76
2023/11/27 00:55:59;;;;;;;14.18;5.93;;;5.00;99.90;;;;;;4944459;28;88601;-76
2023/11/27 00:58:25;;;;;;;15.10;6.32;;;5.00;99.90;;;;;;4943956;28;88353;-76
2023/11/27 01:00:54;;;;;;;13.85;5.80;;;5.00;99.90;;;;;;4943020;28;93126;-76
2023/11/27 01:03:20;;;;;;;16.90;6.60;;;5.00;99.90;;;;;;4923833;28;87706;-76
2023/11/27 01:05:45;;;;;;;18.17;5.85;;;5.10;99.90;;;;;;4944191;28;87183;-76
2023/11/27 01:08:13;;;;;;;17.77;5.10;;;5.00;99.90;;;;;;4943236;28;88368;-76
2023/11/27 01:10:39;;;;;;;11.80;5.18;;;5.00;99.90;;;;;;4959350;28;90751;-76
2023/11/27 01:13:05;;;;;;;11.23;5.07;;;5.00;99.90;;;;;;4927162;28;88459;-76
2023/11/27 01:15:31;;;;;;;12.52;6.70;;;5.00;99.90;;;;;;4942895;28;87581;-76
2023/11/27 01:17:56;;;;;;;13.18;5.90;;;5.00;99.90;;;;;;4942845;28;88528;-76
2023/11/27 01:20:22;;;;;;;13.98;5.18;;;5.00;99.90;;;;;;4924778;28;90638;-76
2023/11/27 01:22:49;;;;;;;12.57;5.25;;;5.00;99.90;;;;;;4943012;28;87641;-76
2023/11/27 01:25:15;;;;;;;11.65;4.93;;;5.00;99.90;;;;;;4924554;28;88939;-76
2023/11/27 01:27:41;;;;;;;16.98;5.82;;;5.00;99.90;;;;;;4924877;28;90583;-76
2023/11/27 01:30:08;;;;;;;11.23;5.10;;;5.00;99.90;;;;;;4942231;28;88495;-76
2023/11/27 01:32:34;;;;;;;15.07;6.50;;;5.00;99.90;;;;;;4943131;28;87196;-76
2023/11/27 01:35:00;;;;;;;14.60;5.88;;;5.00;99.90;;;;;;4926346;28;88983;-76
2023/11/27 01:37:26;;;;;;;14.27;5.30;;;4.90;99.90;;;;;;4924987;28;91537;-76
2023/11/27 01:39:51;;;;;;;17.92;5.80;;;4.90;99.90;;;;;;4943489;28;90062;-76
2023/11/27 01:42:17;;;;;;;11.85;5.40;;;4.90;99.90;;;;;;4924795;28;88839;-76
2023/11/27 01:44:43;;;;;;;19.77;7.40;;;4.90;99.90;;;;;;4923836;28;90568;-76
2023/11/27 01:47:09;;;;;;;13.38;5.93;;;4.80;99.90;;;;;;4923848;28;91373;-76
2023/11/27 01:49:38;;;;;;;15.80;6.57;;;4.80;99.90;;;;;;4941033;28;88457;-76
2023/11/27 01:52:06;;;;;;;16.85;6.38;;;4.80;99.90;;;;;;4924726;28;88718;-76
2023/11/27 01:54:32;;;;;;;12.77;5.97;;;4.80;99.90;;;;;;4924779;28;90440;-76
2023/11/27 01:56:59;;;;;;;16.45;7.03;;;4.70;99.90;;;;;;4942025;28;88525;-76
2023/11/27 01:59:26;;;;;;;15.57;6.30;;;4.70;99.90;;;;;;4927093;28;88945;-75
2023/11/27 02:01:51;;;;;;;17.65;6.65;;;4.60;99.90;;;;;;4942903;28;88524;-76
2023/11/27 02:04:17;;;;;;;16.10;7.03;;;4.60;99.90;;;;;;4945685;28;88033;-76
2023/11/27 02:06:43;;;;;;;14.05;7.38;;;4.60;99.90;;;;;;4944904;28;88657;-76
2023/11/27 02:09:09;;;;;;;18.10;6.55;;;4.60;99.90;;;;;;4944572;28;88455;-76
2023/11/27 02:11:47;;;;;;;16.25;7.03;;;4.50;99.90;;;;;;4926834;28;87688;-76
2023/11/27 02:14:15;;;;;;;17.73;6.22;;;4.50;99.90;;;;;;4926437;28;90560;-76
2023/11/27 02:16:45;;;;;;;19.25;6.28;;;4.50;99.90;;;;;;4944632;28;88247;-76
2023/11/27 02:19:11;;;;;;;15.88;6.80;;;4.50;99.90;;;;;;4928584;28;91735;-76
2023/11/27 02:21:37;;;;;;;15.05;6.25;;;4.50;99.90;;;;;;4947185;28;87690;-76
2023/11/27 02:24:03;;;;;;;17.65;6.85;;;4.50;99.90;;;;;;4952477;28;87118;-76
2023/11/27 02:26:29;;;;;;;16.75;6.65;;;4.40;99.90;;;;;;4946138;28;88193;-76
2023/11/27 02:28:56;;;;;;;19.73;6.32;;;4.40;99.90;;;;;;4949395;28;89289;-76
2023/11/27 02:31:21;;;;;;;14.25;6.88;;;4.50;99.90;;;;;;4935699;28;87615;-76
2023/11/27 02:33:47;;;;;;;11.45;5.85;;;4.40;99.90;;;;;;4933847;28;89131;-76
2023/11/27 02:36:13;;;;;;;11.57;5.47;;;4.40;99.90;;;;;;4948075;28;88165;-77
2023/11/27 02:38:38;;;;;;;15.13;5.75;;;4.40;99.90;;;;;;4928462;28;91081;-76
2023/11/27 02:41:06;;;;;;;12.38;5.82;;;4.40;99.90;;;;;;4945419;28;87710;-76
2023/11/27 02:43:32;;;;;;;12.48;5.18;;;4.40;99.90;;;;;;4927172;28;89877;-76
2023/11/27 02:45:57;;;;;;;11.07;5.45;;;4.40;99.90;;;;;;4927482;28;91046;-76
2023/11/27 02:48:23;;;;;;;11.65;5.68;;;4.40;99.90;;;;;;4926062;28;91647;-76
2023/11/27 02:50:49;;;;;;;17.88;6.07;;;4.30;99.90;;;;;;4944190;28;88965;-76
2023/11/27 02:53:15;;;;;;;16.17;6.95;;;4.30;99.90;;;;;;4943969;28;87821;-76
2023/11/27 02:55:40;;;;;;;11.32;5.25;;;4.30;99.90;;;;;;4926374;28;91252;-76
2023/11/27 02:58:09;;;;;;;13.68;5.80;;;4.40;99.90;;;;;;4944732;28;88053;-76
2023/11/27 03:00:35;;;;;;;14.43;5.65;;;4.30;99.90;;;;;;4926978;28;87997;-76
2023/11/27 03:03:02;;;;;;;13.93;5.80;;;4.30;99.90;;;;;;4960089;28;90721;-77
2023/11/27 03:05:28;;;;;;;14.85;5.88;;;4.30;99.90;;;;;;4945596;28;88809;-76
2023/11/27 03:07:54;;;;;;;17.63;6.47;;;4.30;99.90;;;;;;4926569;28;89953;-76
2023/11/27 03:10:19;;;;;;;13.45;7.32;;;4.30;99.90;;;;;;4962154;28;88072;-76
2023/11/27 03:12:45;;;;;;;14.20;5.93;;;4.30;99.90;;;;;;4934028;28;93725;-76
2023/11/27 03:15:11;;;;;;;16.63;5.53;;;4.30;99.90;;;;;;4951303;28;89475;-76
2023/11/27 03:17:37;;;;;;;8.35;5.20;;;4.20;99.90;;;;;;4951911;28;89344;-76
2023/11/27 03:20:04;;;;;;;11.48;4.65;;;4.20;99.90;;;;;;4933370;28;87977;-77
2023/11/27 03:22:33;;;;;;;11.35;5.45;;;4.20;99.90;;;;;;4933279;28;89489;-76
2023/11/27 03:24:59;;;;;;;14.98;5.32;;;4.20;99.90;;;;;;4937328;28;91933;-76
2023/11/27 03:27:25;;;;;;;11.07;4.63;;;4.20;99.90;;;;;;4928436;28;92010;-76
2023/11/27 03:29:51;;;;;;;16.25;5.43;;;4.20;99.90;;;;;;4927456;28;88086;-76
2023/11/27 03:32:17;;;;;;;12.90;4.80;;;4.20;99.90;;;;;;4927068;28;89171;-76
2023/11/27 03:34:43;;;;;;;11.88;5.38;;;4.20;99.90;;;;;;4928290;28;92392;-76
2023/11/27 03:37:09;;;;;;;10.75;4.63;;;4.10;99.90;;;;;;4929497;28;90180;-76
2023/11/27 03:39:35;;;;;;;16.42;5.55;;;4.10;99.90;;;;;;4933207;28;88684;-76
2023/11/27 03:42:01;;;;;;;14.15;5.40;;;4.10;99.90;;;;;;4933901;28;87853;-76
2023/11/27 03:44:27;;;;;;;12.73;5.10;;;4.10;99.90;;;;;;4927465;28;92575;-76
2023/11/27 03:46:53;;;;;;;11.55;5.57;;;4.10;99.90;;;;;;4927952;28;91903;-76
2023/11/27 03:49:18;;;;;;;12.57;5.22;;;4.10;99.90;;;;;;4927891;28;88704;-76
2023/11/27 03:51:44;;;;;;;12.40;5.22;;;4.10;99.90;;;;;;4944783;28;88052;-76
2023/11/27 03:54:12;;;;;;;13.18;6.63;;;4.10;99.90;;;;;;4943548;28;88134;-76
2023/11/27 03:56:38;;;;;;;12.63;6.00;;;4.10;99.90;;;;;;4945035;28;87957;-76
2023/11/27 03:59:04;;;;;;;14.68;5.05;;;4.10;99.90;;;;;;4927707;28;87564;-77
2023/11/27 04:01:30;;;;;;;14.52;6.07;;;4.10;99.90;;;;;;4966108;28;88078;-77
2023/11/27 04:03:56;;;;;;;11.25;5.00;;;4.10;99.90;;;;;;4943920;28;91016;-77
2023/11/27 04:06:24;;;;;;;10.45;5.55;;;4.10;99.90;;;;;;4951075;28;88828;-76
2023/11/27 04:08:50;;;;;;;14.05;6.07;;;4.10;99.90;;;;;;4935004;28;87297;-76
2023/11/27 04:11:16;;;;;;;11.32;5.75;;;4.10;99.90;;;;;;4934014;28;90478;-76
2023/11/27 04:13:41;;;;;;;17.17;6.07;;;4.10;99.90;;;;;;4933913;28;92359;-76
2023/11/27 04:16:11;;;;;;;12.32;6.03;;;4.10;99.90;;;;;;4951681;28;89022;-76
2023/11/27 04:18:36;;;;;;;10.65;5.70;;;4.10;99.90;;;;;;4950643;28;88222;-76
2023/11/27 04:21:02;;;;;;;13.13;6.07;;;4.10;99.90;;;;;;4951360;28;87334;-76
2023/11/27 04:23:28;;;;;;;15.27;6.82;;;4.10;99.90;;;;;;4933349;28;91429;-76
2023/11/27 04:25:54;;;;;;;12.82;5.30;;;4.10;99.90;;;;;;4953087;28;89020;-76
2023/11/27 04:28:20;;;;;;;11.38;5.13;;;4.10;99.90;;;;;;4937474;28;88702;-76
2023/11/27 04:30:46;;;;;;;11.65;5.78;;;4.10;99.90;;;;;;4934728;28;88389;-77
2023/11/27 04:33:14;;;;;;;11.13;5.53;;;4.10;99.90;;;;;;4930943;28;91474;-76
2023/11/27 04:35:41;;;;;;;12.07;5.60;;;4.10;99.90;;;;;;4932188;28;89955;-76
2023/11/27 04:38:08;;;;;;;10.52;5.30;;;4.00;99.90;;;;;;4935502;28;87908;-76
2023/11/27 04:40:34;;;;;;;10.60;5.30;;;4.10;99.90;;;;;;4941292;28;90763;-76
2023/11/27 04:43:00;;;;;;;10.60;5.32;;;4.10;99.90;;;;;;4934741;28;91620;-77
2023/11/27 04:45:25;;;;;;;13.95;5.75;;;4.10;99.90;;;;;;4954724;28;87921;-77
2023/11/27 04:47:51;;;;;;;14.10;5.60;;;4.10;99.90;;;;;;4937996;28;87479;-77
2023/11/27 04:50:17;;;;;;;10.43;5.10;;;4.10;99.90;;;;;;4936808;28;91229;-76
2023/11/27 04:52:43;;;;;;;15.02;5.93;;;4.10;99.90;;;;;;4936400;28;92965;-77
2023/11/27 04:55:10;;;;;;;13.05;5.20;;;4.10;99.90;;;;;;4956168;28;90510;-76
2023/11/27 04:57:37;;;;;;;12.32;4.82;;;4.10;99.90;;;;;;4955018;28;87826;-76
2023/11/27 05:00:03;;;;;;;11.07;4.97;;;4.10;99.90;;;;;;4937753;28;89013;-77
2023/11/27 05:02:29;;;;;;;9.73;5.22;;;4.10;99.90;;;;;;4954557;28;88589;-76
2023/11/27 05:04:55;;;;;;;12.45;5.63;;;4.10;99.90;;;;;;4952922;28;88303;-76
2023/11/27 05:07:20;;;;;;;10.20;5.07;;;4.10;99.90;;;;;;4936824;28;87676;-77
2023/11/27 05:09:47;;;;;;;8.63;4.65;;;4.10;99.90;;;;;;4926205;28;89541;-76
2023/11/27 05:12:14;;;;;;;11.25;4.72;;;4.10;99.90;;;;;;4931271;28;90112;-76
2023/11/27 05:14:40;;;;;;;10.07;4.95;;;4.10;99.90;;;;;;4950225;28;88103;-76
2023/11/27 05:17:06;;;;;;;11.05;4.45;;;4.10;99.90;;;;;;4932690;28;88903;-76
2023/11/27 05:19:31;;;;;;;9.32;5.00;;;4.10;99.90;;;;;;4933251;28;90979;-76
2023/11/27 05:21:57;;;;;;;11.93;4.70;;;4.10;99.90;;;;;;4933189;28;92574;-77
2023/11/27 05:24:23;;;;;;;8.82;4.47;;;4.10;99.90;;;;;;4951443;28;87807;-77
2023/11/27 05:26:48;;;;;;;11.27;4.60;;;4.10;99.90;;;;;;4924778;28;87306;-77
2023/11/27 05:29:14;;;;;;;14.60;4.88;;;4.10;99.90;;;;;;4932280;28;89542;-76
2023/11/27 05:31:40;;;;;;;9.77;4.65;;;4.10;99.90;;;;;;4930818;28;91661;-77
2023/11/27 05:34:07;;;;;;;12.75;4.63;;;4.20;99.90;;;;;;4933009;28;90003;-76
2023/11/27 05:36:33;;;;;;;10.18;4.85;;;4.20;99.90;;;;;;4962836;28;87936;-76
2023/11/27 05:38:59;;;;;;;8.27;4.25;;;4.10;99.90;;;;;;4925668;28;90245;-76
2023/11/27 05:41:25;;;;;;;8.73;4.25;;;4.10;99.90;;;;;;4942009;28;89404;-76
2023/11/27 05:43:51;;;;;;;10.80;5.22;;;4.20;99.90;;;;;;4941816;28;89372;-76
2023/11/27 05:46:18;;;;;;;8.20;4.50;;;4.10;99.90;;;;;;4942386;28;87696;-76
2023/11/27 05:48:44;;;;;;;10.57;4.47;;;4.10;99.90;;;;;;4923075;28;89342;-76
2023/11/27 05:51:10;;;;;;;5.80;3.80;;;4.20;99.90;;;;;;4922319;28;91780;-76
2023/11/27 05:53:35;;;;;;;8.32;3.85;;;4.10;99.90;;;;;;4924197;28;92545;-76
2023/11/27 05:56:02;;;;;;;6.55;4.15;;;4.20;99.90;;;;;;4942500;28;87597;-76
2023/11/27 05:58:28;;;;;;;7.03;3.92;;;4.20;99.90;;;;;;4925598;28;89594;-76
2023/11/27 06:00:55;;;;;;;6.25;3.72;;;4.20;99.90;;;;;;4925120;28;91822;-76
2023/11/27 06:03:21;;;;;;;6.65;4.05;;;4.20;99.90;;;;;;4924980;28;91804;-76
2023/11/27 06:05:47;;;;;;;6.32;3.88;;;4.10;99.90;;;;;;4956436;28;89083;-76
2023/11/27 06:08:14;;;;;;;8.57;4.05;;;4.20;99.90;;;;;;4932177;28;90184;-77
2023/11/27 06:10:40;;;;;;;5.85;3.67;;;4.20;99.90;;;;;;4942463;28;88432;-76
2023/11/27 06:13:05;;;;;;;7.38;4.32;;;4.20;99.90;;;;;;4944918;28;88049;-76
2023/11/27 06:15:31;;;;;;;6.68;3.13;;;4.20;99.90;;;;;;4944765;28;87930;-76
2023/11/27 06:17:57;;;;;;;6.65;3.42;;;4.20;99.90;;;;;;4926157;28;90020;-76
2023/11/27 06:20:23;;;;;;;5.93;3.40;;;4.20;99.90;;;;;;4925632;28;91641;-76
2023/11/27 06:22:48;;;;;;;6.45;3.67;;;4.20;99.90;;;;;;4933181;28;91187;-77
2023/11/27 06:25:14;;;;;;;4.13;3.15;;;4.20;99.90;;;;;;4944627;28;87658;-76
2023/11/27 06:27:41;;;;;;;5.18;3.45;;;4.20;99.90;;;;;;4922794;28;90236;-77
2023/11/27 06:30:09;;;;;;;4.70;2.83;;;4.30;99.90;;;;;;4942111;28;90268;-76
2023/11/27 06:32:35;;;;;;;5.65;2.95;;;4.30;99.90;;;;;;4924785;28;91724;-76
2023/11/27 06:35:01;;;;;;;4.35;2.60;;;4.30;99.90;;;;;;4924331;28;88048;-77
2023/11/27 06:37:27;;;;;;;6.22;3.10;;;4.30;99.90;;;;;;4942145;28;88058;-77
2023/11/27 06:39:54;;;;;;;4.32;2.80;;;4.30;99.90;;;;;;4931064;28;91863;-77
2023/11/27 06:42:20;;;;;;;6.05;2.65;;;4.30;99.90;;;;;;4942727;28;88392;-76
2023/11/27 06:44:46;;;;;;;7.47;3.22;;;4.40;99.90;;;;;;4927385;28;87552;-76
2023/11/27 06:47:11;;;;;;;4.07;2.70;;;4.30;99.90;;;;;;4928780;28;90351;-76
2023/11/27 06:49:37;;;;;;;4.50;2.83;;;4.40;99.90;;;;;;4918595;28;89999;-77
2023/11/27 06:52:03;;;;;;;5.75;2.70;;;4.40;99.90;;;;;;4927498;28;91426;-77
2023/11/27 06:54:29;;;;;;;4.80;2.83;;;4.40;99.90;;;;;;4926427;28;88573;-77
2023/11/27 06:56:54;;;;;;;4.38;3.10;;;4.50;99.90;;;;;;4944001;28;87687;-76
2023/11/27 06:59:21;;;;;;;6.18;2.55;;;4.50;99.90;;;;;;4957978;28;92673;-76
2023/11/27 07:01:47;;;;;;;4.75;2.90;;;4.50;99.90;;;;;;4926014;28;91777;-76
2023/11/27 07:04:12;;;;;;;5.20;2.88;;;4.50;99.90;;;;;;4927945;28;87783;-77
2023/11/27 07:06:39;;;;;;;3.00;2.10;;;4.50;99.90;;;;;;4943565;28;87995;-76
2023/11/27 07:09:06;;;;;;;9.05;2.90;;;4.60;99.90;;;;;;4926640;28;90344;-76
2023/11/27 07:11:35;;;;;;;4.43;2.63;;;4.60;99.90;;;;;;4925876;28;90982;-76
2023/11/27 07:14:02;;;;;;;4.35;2.50;;;4.60;99.90;;;;;;4943024;28;87505;-77
2023/11/27 07:16:29;;;;;;;6.03;2.70;;;4.60;99.90;;;;;;4926941;28;90897;-77
2023/11/27 07:18:57;;;;;;;4.32;2.58;;;4.60;99.90;;;;;;4943159;28;91843;-76
2023/11/27 07:21:32;;;;;;;5.63;3.03;;;4.60;99.90;;;;;;4944043;28;89340;-76
2023/11/27 07:23:57;;;;;;;5.13;2.67;;;4.70;99.90;;;;;;4933927;28;87305;-76
2023/11/27 07:26:27;;;;;;;4.13;2.35;;;4.70;99.90;;;;;;4955162;28;87927;-77
2023/11/27 07:28:55;;;;;;;4.70;2.45;;;4.60;99.90;;;;;;4938064;28;91819;-77
2023/11/27 07:31:23;;;;;;;5.15;2.35;;;4.70;99.90;;;;;;4958160;28;87684;-77
2023/11/27 07:33:51;;;;;;;2.78;2.20;;;4.70;99.90;;;;;;4957381;28;87562;-77
2023/11/27 07:36:17;;;;;;;4.47;2.42;;;4.70;99.90;;;;;;4954480;28;87501;-76
2023/11/27 07:38:45;;;;;;;4.63;2.58;;;4.70;99.90;;;;;;4927113;28;91074;-76
2023/11/27 07:41:13;;;;;;;3.28;2.45;;;4.70;99.90;;;;;;4928651;28;91555;-77
2023/11/27 07:43:38;;;;;;;4.18;2.45;;;4.70;99.90;;;;;;4931748;28;88596;-78
2023/11/27 07:46:10;;;;;;;5.13;2.78;;;4.70;99.90;;;;;;4959981;28;87665;-77
2023/11/27 07:48:39;;;;;;;4.78;2.53;;;4.70;99.90;;;;;;4939748;28;91808;-77
2023/11/27 07:51:06;;;;;;;5.35;3.10;;;4.70;99.90;;;;;;4938997;28;90759;-78
2023/11/27 07:53:32;;;;;;;4.30;2.55;;;4.70;99.90;;;;;;4971540;28;87919;-77
2023/11/27 07:55:59;;;;;;;5.25;2.67;;;4.70;99.90;;;;;;4937885;28;90599;-78
2023/11/27 07:58:25;;;;;;;4.57;2.55;;;4.70;99.90;;;;;;4957731;28;87993;-78
2023/11/27 08:00:50;;;;;;;5.78;2.60;;;4.70;99.90;;;;;;4973400;28;95445;-78
2023/11/27 08:03:16;;;;;;;4.50;2.70;;;4.70;99.90;;;;;;4947456;28;87546;-78
2023/11/27 08:05:43;;;;;;;5.00;2.90;;;4.70;99.90;;;;;;4956950;28;87790;-78
2023/11/27 08:08:09;;;;;;;5.13;2.75;;;4.70;99.90;;;;;;4941950;28;91607;-78
2023/11/27 08:10:38;;;;;;;3.88;2.63;;;4.70;99.90;;;;;;4941066;28;91708;-78
2023/11/27 08:13:05;;;;;;;3.60;2.70;;;4.70;99.90;;;;;;4958497;28;87616;-77
2023/11/27 08:15:30;;;;;;;4.78;2.70;;;4.70;99.90;;;;;;4940627;28;88584;-78
2023/11/27 08:17:56;;;;;;;4.82;3.38;;;4.70;99.90;;;;;;4940126;28;90080;-78
2023/11/27 08:20:28;;;;;;;5.45;2.80;;;4.70;99.90;;;;;;4957403;28;88714;-78
2023/11/27 08:22:54;;;;;;;3.65;2.75;;;4.70;99.90;;;;;;4971992;28;87688;-78
2023/11/27 08:25:23;;;;;;;5.03;3.00;;;4.70;99.90;;;;;;4940998;28;90695;-77
2023/11/27 08:27:48;;;;;;;6.20;2.80;;;4.70;99.90;;;;;;4936037;28;89741;-78
2023/11/27 08:30:14;;;;;;;4.45;2.80;;;4.70;99.90;;;;;;4957418;28;88226;-78
2023/11/27 08:32:40;;;;;;;4.72;2.70;;;4.70;99.90;;;;;;4938623;28;88542;-79
2023/11/27 08:35:08;;;;;;;6.43;4.05;;;4.70;99.90;;;;;;4937702;28;89657;-78
2023/11/27 08:37:35;;;;;;;5.90;3.03;;;4.70;99.90;;;;;;4955200;28;87910;-78
2023/11/27 08:40:09;;;;;;;8.07;2.67;;;4.70;99.90;;;;;;4955322;28;87542;-77
2023/11/27 08:42:35;;;;;;;3.58;2.42;;;4.70;99.90;;;;;;4934596;28;87771;-77
2023/11/27 08:45:18;;;;;;;6.40;2.60;;;4.80;99.90;;;;;;4955408;28;87989;-77
2023/11/27 08:47:50;;;;;;;7.07;3.40;;;4.80;99.90;;;;;;4955937;28;88678;-78
2023/11/27 08:50:18;;;;;;;4.35;2.40;;;4.80;99.90;;;;;;4955291;28;87917;-78
2023/11/27 08:52:45;;;;;;;4.10;2.67;;;4.80;99.90;;;;;;4956261;28;88263;-78
2023/11/27 08:55:17;;;;;;;4.00;2.67;;;4.80;99.90;;;;;;4939664;28;89998;-78
2023/11/27 08:57:43;;;;;;;4.50;2.67;;;4.80;99.90;;;;;;4955344;28;88455;-78
2023/11/27 09:00:12;;;;;;;3.92;2.33;;;4.80;99.90;;;;;;4937346;28;90910;-79
2023/11/27 09:02:38;;;;;;;3.95;2.20;;;4.80;99.90;;;;;;4946211;28;87657;-79
2023/11/27 09:05:08;;;;;;;2.55;1.85;;;4.80;99.90;;;;;;4944386;28;90374;-80
2023/11/27 09:07:34;;;;;;;5.05;1.80;;;4.80;99.90;;;;;;4971006;28;91645;-80
2023/11/27 09:10:00;;;;;;;6.65;1.98;;;4.80;99.90;;;;;;4938674;28;92052;-79
2023/11/27 09:12:25;;;;;;;4.10;2.08;;;4.80;99.90;;;;;;4937644;28;87750;-79
2023/11/27 09:14:51;;;;;;;3.85;2.30;;;4.80;99.90;;;;;;4938416;28;89540;-80
2023/11/27 09:17:17;;;;;;;4.22;2.15;;;4.80;99.90;;;;;;4955628;28;88388;-79
2023/11/27 09:19:44;;;;;;;4.75;2.17;;;4.80;99.90;;;;;;4936794;28;90747;-77
2023/11/27 09:22:10;;;;;;;5.60;2.35;;;4.80;99.90;;;;;;4939468;28;88491;-79
2023/11/27 09:24:38;;;;;;;2.72;2.05;;;4.80;99.90;;;;;;4937948;28;89427;-78
2023/11/27 09:27:06;;;;;;;5.32;2.00;;;4.80;99.90;;;;;;4954667;28;89216;-79
2023/11/27 09:29:32;;;;;;;6.45;2.03;;;4.80;99.90;;;;;;4936284;28;91662;-78
2023/11/27 09:31:59;;;;;;;3.58;2.20;;;4.80;99.90;;;;;;4963033;28;87369;-77
2023/11/27 09:34:28;;;;;;;3.45;2.28;;;4.80;99.90;;;;;;4937413;28;90608;-78
2023/11/27 09:36:54;;;;;;;5.45;1.98;;;4.90;99.90;;;;;;4937468;28;95406;-78
2023/11/27 09:39:19;;;;;;;3.90;2.15;;;4.90;99.90;;;;;;4936928;28;90507;-78
2023/11/27 09:41:45;;;;;;;4.22;1.85;;;4.80;99.90;;;;;;4937258;28;87922;-77
2023/11/27 09:44:13;;;;;;;4.50;2.30;;;4.90;99.90;;;;;;4937088;28;90003;-78
2023/11/27 09:46:42;;;;;;;2.67;1.73;;;4.90;99.90;;;;;;4936660;28;92776;-77
2023/11/27 09:49:14;;;;;;;2.65;1.75;;;4.90;99.90;;;;;;4935386;28;93198;-77
2023/11/27 09:51:41;;;;;;;3.15;1.95;;;4.80;99.90;;;;;;4933028;28;87248;-78
2023/11/27 09:54:09;;;;;;;5.90;2.85;;;4.90;99.90;;;;;;4934936;28;89874;-77
2023/11/27 09:56:36;;;;;;;3.90;1.88;;;4.80;99.90;;;;;;4953026;28;88269;-77
2023/11/27 09:59:08;;;;;;;4.60;1.98;;;4.90;99.90;;;;;;4943326;28;91853;-77
2023/11/27 10:01:35;;;;;;;3.80;1.88;;;4.90;99.90;;;;;;4945438;28;88044;-77
2023/11/27 10:04:08;;;;;;;2.67;1.70;;;4.90;99.90;;;;;;4968894;28;87446;-78
2023/11/27 10:06:41;;;;;;;4.90;1.97;;;4.90;99.90;;;;;;4953173;28;87339;-78
2023/11/27 10:09:13;;;;;;;;;;;4.90;99.90;;;;;;4929228;28;90106;-77
2023/11/27 10:11:43;;;;;;;2.85;1.75;;;4.80;99.90;;;;;;4955491;28;88434;-78
2023/11/27 10:14:15;;;;;;;3.45;1.35;;;4.90;99.90;;;;;;4921318;28;90083;-78
2023/11/27 10:16:44;;;;;;;2.80;1.60;;;4.80;99.90;;;;;;4935562;28;90510;-78
2023/11/27 10:19:19;;;;;;;3.63;1.45;;;4.80;99.90;;;;;;4951792;28;89257;-78
2023/11/27 10:21:52;;;;;;;2.53;1.60;;;4.80;99.90;;;;;;4956474;28;87347;-78
2023/11/27 10:24:21;;;;;;;2.08;1.48;;;4.80;99.90;;;;;;4957356;28;87843;-78
2023/11/27 10:26:52;;;;;;;2.05;1.23;;;4.80;99.90;;;;;;4958439;28;88993;-78
2023/11/27 10:29:33;;;;;;;4.40;1.50;;;4.80;99.90;;;;;;4957226;28;91873;-78
2023/11/27 10:32:04;;;;;;;3.58;1.50;;;4.80;99.90;;;;;;4951333;28;87813;-78
2023/11/27 10:34:33;;;;;;;2.38;1.35;;;4.80;99.90;;;;;;4957167;28;89271;-78
2023/11/27 10:37:02;;;;;;;2.13;1.33;;;4.80;99.90;;;;;;4950526;28;90863;-78
2023/11/27 10:39:32;;;;;;;1.67;1.10;;;4.80;99.90;;;;;;4939892;28;89751;-77
2023/11/27 10:42:00;;;;;;;1.92;1.27;;;4.80;99.90;;;;;;4939600;28;87766;-78
2023/11/27 10:44:29;;;;;;;2.42;1.30;;;4.80;99.90;;;;;;4938734;28;90984;-78
2023/11/27 10:46:55;;;;;;;2.80;1.30;;;4.80;99.90;;;;;;4939813;28;91667;-78
2023/11/27 10:49:24;;;;;;;3.00;1.20;;;4.80;99.90;;;;;;4940979;28;90377;-78
2023/11/27 10:51:53;;;;;;;2.95;0.90;;;4.90;99.90;;;;;;4957505;28;88389;-78
2023/11/27 10:54:21;;;;;;;3.58;1.00;;;4.80;99.90;;;;;;4948261;28;87618;-78
2023/11/27 10:56:53;;;;;;;1.67;0.98;;;4.80;99.90;;;;;;4958003;28;89283;-77
2023/11/27 10:59:24;;;;;;;1.63;1.10;;;4.80;99.90;;;;;;4972360;28;89065;-78
2023/11/27 11:02:00;;;;;;;1.83;1.05;;;4.90;99.90;;;;;;4939353;28;89053;-78
2023/11/27 11:04:39;;;;;;;1.40;1.13;;;4.90;99.90;;;;;;4939227;28;90661;-77
2023/11/27 11:07:36;;;;;;;1.35;0.98;;;4.80;99.90;;;;;;4959540;28;90217;-77
2023/11/27 11:10:05;;;;;;;1.27;1.10;;;4.80;99.90;;;;;;4951895;28;92553;-78
2023/11/27 11:12:36;;;;;;;2.45;0.90;;;4.90;99.90;;;;;;4937326;28;87662;-78
2023/11/27 11:15:08;;;;;;;1.95;1.00;;;4.80;99.90;;;;;;4935961;28;90137;-78
2023/11/27 11:18:10;;;;;;;3.20;0.98;;;4.90;99.90;;;;;;4954122;28;87993;-78
2023/11/27 11:21:03;;;;;;;1.50;1.08;;;4.80;99.90;;;;;;4963389;28;91303;-78
2023/11/27 11:23:58;;;;;;;2.38;0.98;;;4.90;99.90;;;;;;4950744;28;87880;-79
2023/11/27 11:27:01;;;;;;;1.30;1.02;;;4.90;99.90;;;;;;4956348;28;87689;-78
2023/11/27 11:29:34;;;;;;;0.70;0.68;;;4.90;99.90;;;;;;4954777;28;91676;-79
2023/11/27 11:32:01;;;;;;;;;;;4.90;99.90;;;;;;4959071;28;89715;-79
2023/11/27 11:34:32;;;;;;;1.00;0.60;;;4.90;99.90;;;;;;4941830;28;87525;-78
2023/11/27 11:37:00;;;;;;;1.60;0.60;;;4.90;99.90;;;;;;4974485;28;91124;-78
2023/11/27 11:39:26;;;;;;;1.60;0.80;;;4.90;99.90;;;;;;4939880;28;92430;-78
2023/11/27 11:42:03;;;;;;;1.38;0.70;;;4.90;99.90;;;;;;4939243;28;89128;-79
2023/11/27 11:44:34;;;;;;;0.70;0.50;;;5.00;99.90;;;;;;4957187;28;87428;-78
2023/11/27 11:47:06;;;;;;;2.38;0.90;;;5.00;99.90;;;;;;4956676;28;87425;-79
2023/11/27 11:49:32;;;;;;;2.53;0.90;;;5.00;99.90;;;;;;4956613;28;88451;-78
2023/11/27 11:52:09;;;;;;;1.55;0.90;;;5.00;99.90;;;;;;4939043;28;89199;-78
2023/11/27 11:54:40;;;;;;;2.08;0.77;;;5.00;99.90;;;;;;4956600;28;88597;-78
2023/11/27 11:57:20;;;;;;;1.08;0.80;;;5.00;99.90;;;;;;4957106;28;87924;-78
2023/11/27 11:59:51;;;;;;;1.60;0.75;;;5.10;99.90;;;;;;4956423;28;89025;-79
2023/11/27 12:02:19;;;;;;;2.03;0.80;;;5.10;99.90;;;;;;4956034;28;87972;-77
2023/11/27 12:04:46;;;;;;;2.20;1.02;;;5.10;99.90;;;;;;4939935;28;87730;-79
2023/11/27 12:07:13;;;;;;;1.20;0.70;;;5.10;99.90;;;;;;4935747;28;88915;-78
2023/11/27 12:09:41;;;;;;;1.50;0.70;;;5.10;99.90;;;;;;4931590;28;92154;-78
2023/11/27 12:12:10;;;;;;;1.25;0.70;;;5.20;99.90;;;;;;4944311;28;87521;-78
2023/11/27 12:14:37;;;;;;;2.45;0.82;;;5.10;99.90;;;;;;4927424;28;87730;-78
2023/11/27 12:17:07;;;;;;;1.65;0.90;;;5.20;99.90;;;;;;4923949;28;89793;-78
2023/11/27 12:19:33;;;;;;;5.70;0.55;;;5.20;99.90;;;;;;4942663;28;89409;-78
2023/11/27 12:21:59;;;;;;;0.70;0.60;;;5.20;99.90;;;;;;4943817;28;89564;-78
2023/11/27 12:24:25;;;;;;;1.83;0.68;;;5.20;99.90;;;;;;4943331;28;87873;-78
2023/11/27 12:26:54;;;;;;;1.20;0.80;;;5.20;99.90;;;;;;4944042;28;87898;-78
2023/11/27 12:29:20;;;;;;;1.80;0.60;;;5.20;99.90;;;;;;4925233;28;90705;-78
2023/11/27 12:31:46;;;;;;;0.70;0.60;;;5.20;99.90;;;;;;4925872;28;91754;-78
2023/11/27 12:34:16;;;;;;;1.30;0.70;;;5.20;99.90;;;;;;4927054;28;87860;-78
2023/11/27 12:36:44;;;;;;;1.05;0.90;;;5.20;99.90;;;;;;4943359;28;88389;-78
2023/11/27 12:39:16;;;;;;;1.85;0.70;;;5.20;99.90;;;;;;4925713;28;92455;-78
2023/11/27 12:41:43;;;;;;;0.93;0.70;;;5.20;99.90;;;;;;4942482;28;88524;-78
2023/11/27 12:44:13;;;;;;;2.08;0.65;;;5.20;99.90;;;;;;4943481;28;88694;-78
2023/11/27 12:46:52;;;;;;;1.23;0.93;;;5.30;99.90;;;;;;4932753;28;90241;-78
2023/11/27 12:49:23;;;;;;;1.25;0.80;;;5.30;99.90;;;;;;4934602;28;91573;-78
2023/11/27 12:51:55;;;;;;;4.25;1.40;;;5.20;99.90;;;;;;4951682;28;87446;-78
2023/11/27 12:54:21;;;;;;;1.15;0.75;;;5.30;99.90;;;;;;4949353;28;88878;-78
2023/11/27 12:56:51;;;;;;;1.92;0.80;;;5.30;99.90;;;;;;4951715;28;87983;-78